Time;durP1;ratioP1;P1;durP2;ratioP2;P2;SDS_P1;SDS_P2;PMS_P1;PMS_P2;Temp;Humidity;BMP_temperature;BMP_pressure;BME280_temperature;BME280_humidity;BME280_pressure;Samples;Min_cycle;Max_cycle;Signal;HPM_P1;HPM_P2
2023/05/10 00:01:38;;;;;;;3.65;1.05;;;19.60;69.00;;;;;;6129881;23;20048;-86
2023/05/10 00:04:04;;;;;;;1.58;1.13;;;19.50;68.20;;;;;;6129862;23;20309;-86
2023/05/10 00:06:30;;;;;;;2.83;0.95;;;19.50;67.90;;;;;;6104188;23;20009;-85
2023/05/10 00:08:55;;;;;;;3.13;1.48;;;19.50;69.20;;;;;;6104684;23;20001;-87
2023/05/10 00:11:21;;;;;;;1.73;1.02;;;19.40;67.40;;;;;;6130731;23;20488;-88
2023/05/10 00:13:47;;;;;;;1.58;1.08;;;19.40;68.20;;;;;;6105229;23;20085;-89
2023/05/10 00:16:13;;;;;;;3.05;1.40;;;19.40;68.10;;;;;;6131116;23;20021;-87
2023/05/10 00:18:39;;;;;;;1.67;1.30;;;19.40;68.00;;;;;;6104673;23;20014;-88
2023/05/10 00:21:05;;;;;;;1.52;1.10;;;19.30;67.40;;;;;;6104679;23;20077;-88
2023/05/10 00:23:31;;;;;;;2.00;1.20;;;19.30;67.90;;;;;;6104510;23;20005;-88
2023/05/10 00:25:56;;;;;;;0.88;0.82;;;19.20;67.90;;;;;;6130668;23;20026;-88
2023/05/10 00:28:22;;;;;;;1.98;1.10;;;19.30;68.30;;;;;;6104676;23;20002;-87
2023/05/10 00:30:48;;;;;;;3.70;1.25;;;19.30;68.10;;;;;;6104402;23;20030;-87
2023/05/10 00:33:14;;;;;;;2.65;1.80;;;19.30;68.00;;;;;;6130184;23;20097;-87
2023/05/10 00:35:40;;;;;;;2.35;1.08;;;19.30;67.80;;;;;;6129828;23;20009;-85
2023/05/10 00:38:06;;;;;;;2.28;1.30;;;19.30;67.50;;;;;;6129655;23;20013;-85
2023/05/10 00:40:31;;;;;;;1.85;1.08;;;19.30;67.60;;;;;;6103907;23;20017;-86
2023/05/10 00:42:58;;;;;;;2.35;1.20;;;19.30;67.20;;;;;;6129780;23;20038;-86
2023/05/10 00:45:24;;;;;;;2.60;1.33;;;19.30;66.70;;;;;;6130169;23;20048;-86
2023/05/10 00:47:54;;;;;;;2.90;1.38;;;19.30;66.30;;;;;;6130452;23;20002;-87
2023/05/10 00:50:21;;;;;;;1.15;0.98;;;19.30;66.50;;;;;;6104274;23;20373;-86
2023/05/10 00:52:47;;;;;;;1.95;1.25;;;19.30;66.40;;;;;;6130773;23;20053;-86
2023/05/10 00:55:13;;;;;;;2.08;1.20;;;19.30;66.30;;;;;;6129786;23;20329;-86
2023/05/10 00:57:39;;;;;;;1.15;1.05;;;19.30;66.30;;;;;;6130216;23;20002;-86
2023/05/10 01:00:05;;;;;;;1.73;1.33;;;19.30;66.30;;;;;;6102406;23;20010;-86
2023/05/10 01:02:32;;;;;;;1.58;1.10;;;19.30;66.50;;;;;;6128730;23;20001;-87
2023/05/10 01:04:59;;;;;;;1.15;1.00;;;19.30;66.80;;;;;;6128683;23;20081;-86
2023/05/10 01:07:25;;;;;;;1.08;0.98;;;19.30;66.30;;;;;;6128327;23;20002;-84
2023/05/10 01:09:51;;;;;;;1.80;1.00;;;19.30;66.30;;;;;;6127599;23;20060;-84
2023/05/10 01:12:17;;;;;;;0.95;0.85;;;19.30;65.70;;;;;;6128373;23;20009;-84
2023/05/10 01:14:43;;;;;;;1.33;1.20;;;19.20;65.70;;;;;;6127801;23;20033;-85
2023/05/10 01:17:12;;;;;;;1.00;0.90;;;19.20;65.90;;;;;;6128368;23;20018;-85
2023/05/10 01:19:38;;;;;;;1.40;1.00;;;19.20;65.80;;;;;;6127818;23;20034;-85
2023/05/10 01:22:15;;;;;;;1.42;0.95;;;19.20;65.60;;;;;;6127769;23;20002;-85
2023/05/10 01:24:44;;;;;;;1.50;0.93;;;19.20;65.10;;;;;;6127654;23;20050;-84
2023/05/10 01:27:37;;;;;;;5.05;1.77;;;19.20;65.00;;;;;;6102014;23;20314;-86
2023/05/10 01:30:38;;;;;;;1.05;0.82;;;19.20;64.20;;;;;;6128509;23;20428;-85
2023/05/10 01:33:15;;;;;;;4.20;1.20;;;19.10;64.50;;;;;;6128592;23;20006;-84
2023/05/10 01:35:41;;;;;;;1.73;1.10;;;19.10;64.40;;;;;;6127284;23;20006;-85
2023/05/10 01:38:16;;;;;;;3.40;1.00;;;19.10;64.00;;;;;;6101714;23;20033;-85
2023/05/10 01:41:18;;;;;;;1.30;1.20;;;19.10;63.80;;;;;;6128039;23;20077;-85
2023/05/10 01:43:59;;;;;;;2.28;1.00;;;19.10;62.90;;;;;;6127979;23;20012;-85
2023/05/10 01:46:31;;;;;;;1.40;0.98;;;19.10;62.90;;;;;;6127590;23;19998;-85
2023/05/10 01:49:00;;;;;;;3.33;1.30;;;19.00;63.40;;;;;;6127327;23;20040;-85
2023/05/10 01:51:31;;;;;;;1.27;1.10;;;19.10;63.60;;;;;;6128136;23;20032;-85
2023/05/10 01:54:02;;;;;;;1.30;1.20;;;19.10;64.00;;;;;;6102006;23;20704;-86
2023/05/10 01:56:31;;;;;;;2.88;1.25;;;19.10;63.90;;;;;;6127720;23;20460;-85
2023/05/10 01:58:59;;;;;;;1.73;1.03;;;19.10;64.60;;;;;;6127735;23;20039;-85
2023/05/10 02:01:27;;;;;;;2.40;1.20;;;19.10;65.90;;;;;;6128221;23;20065;-86
2023/05/10 02:03:55;;;;;;;1.10;1.00;;;19.00;65.90;;;;;;6128647;23;20029;-87
2023/05/10 02:06:23;;;;;;;3.85;1.05;;;18.90;66.20;;;;;;6102085;23;20013;-87
2023/05/10 02:08:50;;;;;;;4.80;1.67;;;18.90;66.50;;;;;;6127509;23;20002;-87
2023/05/10 02:11:18;;;;;;;5.45;1.60;;;18.90;66.90;;;;;;6128369;23;20005;-86
2023/05/10 02:13:47;;;;;;;3.05;1.75;;;18.80;67.20;;;;;;6102195;23;20029;-87
2023/05/10 02:16:14;;;;;;;1.95;1.60;;;18.80;67.60;;;;;;6128333;23;20053;-86
2023/05/10 02:18:41;;;;;;;1.90;1.70;;;18.80;68.80;;;;;;6127517;23;20006;-85
2023/05/10 02:21:08;;;;;;;2.67;2.05;;;18.70;68.40;;;;;;6127412;23;20454;-83
2023/05/10 02:23:35;;;;;;;6.50;2.20;;;18.70;68.60;;;;;;6102209;23;20377;-87
2023/05/10 02:26:02;;;;;;;4.30;2.20;;;18.70;68.90;;;;;;6128450;23;20002;-87
2023/05/10 02:28:29;;;;;;;2.97;2.00;;;18.70;69.30;;;;;;6127937;23;20421;-87
2023/05/10 02:30:55;;;;;;;5.13;1.92;;;18.70;69.20;;;;;;6127851;23;20006;-86
2023/05/10 02:33:22;;;;;;;2.55;1.85;;;18.70;69.30;;;;;;6127822;23;20002;-86
2023/05/10 02:35:50;;;;;;;2.28;1.92;;;18.60;69.30;;;;;;6128378;23;20006;-87
2023/05/10 02:38:16;;;;;;;3.47;1.88;;;18.60;69.60;;;;;;6101878;23;20029;-87
2023/05/10 02:40:43;;;;;;;2.33;1.35;;;18.50;69.60;;;;;;6128551;23;20001;-86
2023/05/10 02:43:14;;;;;;;1.20;1.00;;;18.50;69.50;;;;;;6128028;23;20005;-87
2023/05/10 02:45:41;;;;;;;2.97;1.48;;;18.50;70.00;;;;;;6127912;23;20447;-87
2023/05/10 02:48:07;;;;;;;3.78;1.27;;;18.50;70.30;;;;;;6127343;23;20006;-88
2023/05/10 02:50:35;;;;;;;2.30;1.52;;;18.50;70.10;;;;;;6128018;23;19997;-87
2023/05/10 02:53:03;;;;;;;2.08;1.42;;;18.50;70.30;;;;;;6127795;23;20002;-87
2023/05/10 02:55:36;;;;;;;3.10;1.40;;;18.50;70.50;;;;;;6128029;23;20030;-87
2023/05/10 02:58:03;;;;;;;1.60;1.25;;;18.50;69.90;;;;;;6127417;23;20333;-85
2023/05/10 03:00:28;;;;;;;1.83;1.35;;;18.40;70.30;;;;;;6127284;23;20005;-86
2023/05/10 03:02:55;;;;;;;3.55;1.70;;;18.40;70.00;;;;;;6127390;23;20012;-85
2023/05/10 03:05:21;;;;;;;1.55;1.00;;;18.40;70.40;;;;;;6127105;23;19998;-85
2023/05/10 03:07:47;;;;;;;4.20;1.45;;;18.40;70.10;;;;;;6127366;23;20013;-85
2023/05/10 03:10:13;;;;;;;2.85;1.60;;;18.40;70.50;;;;;;6102013;23;20010;-85
2023/05/10 03:12:42;;;;;;;1.75;1.40;;;18.40;71.10;;;;;;6127031;23;20108;-84
2023/05/10 03:15:18;;;;;;;2.42;1.60;;;18.40;71.30;;;;;;6126835;23;20002;-85
2023/05/10 03:17:56;;;;;;;1.77;1.52;;;18.40;71.00;;;;;;6100737;23;20016;-86
2023/05/10 03:20:31;;;;;;;2.15;1.40;;;18.40;71.30;;;;;;6127294;23;20009;-86
2023/05/10 03:23:04;;;;;;;1.48;1.33;;;18.30;71.20;;;;;;6127397;23;20337;-87
2023/05/10 03:25:31;;;;;;;1.92;1.13;;;18.30;71.20;;;;;;6128558;23;20002;-87
2023/05/10 03:27:57;;;;;;;1.58;1.35;;;18.20;71.50;;;;;;6102534;23;20005;-87
2023/05/10 03:30:24;;;;;;;2.83;1.60;;;18.20;72.00;;;;;;6127108;23;20012;-85
2023/05/10 03:32:50;;;;;;;1.73;1.23;;;18.20;71.30;;;;;;6101446;23;20006;-85
2023/05/10 03:35:16;;;;;;;2.17;1.13;;;18.20;71.60;;;;;;6100919;23;20267;-85
2023/05/10 03:37:42;;;;;;;1.58;1.30;;;18.10;72.10;;;;;;6126697;23;20022;-85
2023/05/10 03:40:09;;;;;;;2.00;1.55;;;18.20;72.00;;;;;;6126909;23;20009;-86
2023/05/10 03:42:35;;;;;;;2.13;1.40;;;18.10;71.90;;;;;;6126776;23;20008;-85
2023/05/10 03:45:01;;;;;;;2.20;1.35;;;18.20;72.40;;;;;;6101410;23;20009;-86
2023/05/10 03:47:27;;;;;;;2.90;1.40;;;18.10;72.40;;;;;;6126713;23;20096;-87
2023/05/10 03:49:52;;;;;;;1.85;1.50;;;18.10;73.40;;;;;;6101110;23;20336;-86
2023/05/10 03:52:18;;;;;;;2.88;1.17;;;18.10;73.60;;;;;;6128005;23;19998;-86
2023/05/10 03:54:44;;;;;;;1.77;1.33;;;18.10;74.30;;;;;;6127848;23;20057;-85
2023/05/10 03:57:09;;;;;;;2.92;1.60;;;18.10;73.50;;;;;;6127660;23;20006;-85
2023/05/10 03:59:35;;;;;;;1.92;1.58;;;18.00;73.90;;;;;;6128927;23;19998;-87
2023/05/10 04:02:01;;;;;;;2.92;1.40;;;18.00;74.00;;;;;;6103624;23;20006;-85
2023/05/10 04:04:26;;;;;;;2.90;1.23;;;18.00;74.50;;;;;;6127639;23;20017;-86
2023/05/10 04:06:52;;;;;;;1.60;1.40;;;18.00;75.20;;;;;;6130791;23;20029;-86
2023/05/10 04:09:18;;;;;;;4.82;1.60;;;18.00;75.60;;;;;;6103348;23;20008;-86
2023/05/10 04:11:44;;;;;;;1.48;1.30;;;18.00;74.70;;;;;;6129136;23;20325;-85
2023/05/10 04:14:09;;;;;;;2.25;1.50;;;18.00;74.90;;;;;;6104605;23;20006;-86
2023/05/10 04:16:35;;;;;;;4.57;1.17;;;18.00;74.50;;;;;;6128997;23;20002;-86
2023/05/10 04:19:01;;;;;;;2.25;1.40;;;18.00;74.30;;;;;;6129327;23;20002;-84
2023/05/10 04:21:26;;;;;;;1.73;1.45;;;18.00;73.80;;;;;;6127801;23;20037;-84
2023/05/10 04:23:52;;;;;;;2.38;1.38;;;18.00;74.10;;;;;;6127529;23;20005;-85
2023/05/10 04:26:18;;;;;;;2.08;1.58;;;17.90;74.00;;;;;;6127851;23;20432;-85
2023/05/10 04:28:43;;;;;;;1.98;1.50;;;17.90;74.00;;;;;;6127539;23;20376;-84
2023/05/10 04:31:10;;;;;;;2.65;1.55;;;18.00;74.10;;;;;;6127581;23;19998;-83
2023/05/10 04:33:36;;;;;;;1.95;1.45;;;17.90;74.30;;;;;;6127852;23;20436;-84
2023/05/10 04:36:03;;;;;;;3.42;1.48;;;17.90;74.20;;;;;;6101813;23;20010;-82
2023/05/10 04:38:29;;;;;;;2.95;1.77;;;17.80;74.10;;;;;;6127850;23;20080;-82
2023/05/10 04:40:54;;;;;;;3.00;1.38;;;17.80;74.50;;;;;;6128282;23;20002;-80
2023/05/10 04:43:20;;;;;;;4.63;1.83;;;17.80;74.80;;;;;;6127133;23;20009;-82
2023/05/10 04:45:46;;;;;;;1.70;1.20;;;17.80;74.50;;;;;;6101661;23;20021;-81
2023/05/10 04:48:12;;;;;;;4.03;1.67;;;17.80;75.20;;;;;;6127341;23;20040;-81
2023/05/10 04:50:39;;;;;;;1.90;1.38;;;17.90;76.10;;;;;;6127633;23;20096;-84
2023/05/10 04:53:04;;;;;;;1.45;1.20;;;17.80;75.60;;;;;;6127635;23;20029;-80
2023/05/10 04:55:30;;;;;;;1.58;1.23;;;17.80;75.70;;;;;;6127003;23;20405;-81
2023/05/10 04:57:57;;;;;;;2.22;1.33;;;17.80;75.40;;;;;;6126898;23;20002;-84
2023/05/10 05:00:23;;;;;;;2.08;1.30;;;17.80;75.30;;;;;;6128387;23;20130;-83
2023/05/10 05:02:49;;;;;;;2.05;1.60;;;17.80;75.60;;;;;;6128303;23;20013;-84
2023/05/10 05:05:14;;;;;;;1.70;1.15;;;17.80;75.20;;;;;;6128421;23;20002;-82
2023/05/10 05:07:40;;;;;;;1.80;1.30;;;17.70;75.40;;;;;;6130096;23;20002;-89
2023/05/10 05:10:08;;;;;;;2.58;1.50;;;17.70;75.40;;;;;;6129955;23;20352;-87
2023/05/10 05:12:41;;;;;;;2.72;1.58;;;17.70;75.00;;;;;;6129780;23;20006;-89
2023/05/10 05:15:09;;;;;;;4.05;1.52;;;17.70;75.40;;;;;;6106500;23;20516;-89
2023/05/10 05:17:35;;;;;;;3.95;2.30;;;17.60;75.20;;;;;;6129596;23;20002;-83
2023/05/10 05:20:01;;;;;;;3.58;2.17;;;17.70;76.70;;;;;;6102318;23;20010;-82
2023/05/10 05:22:27;;;;;;;3.70;1.67;;;17.70;77.80;;;;;;6127428;23;20325;-82
2023/05/10 05:24:58;;;;;;;2.38;1.58;;;17.80;78.20;;;;;;6104743;23;20008;-88
2023/05/10 05:27:25;;;;;;;2.08;1.80;;;17.80;77.50;;;;;;6131507;23;20002;-88
2023/05/10 05:29:57;;;;;;;2.55;1.65;;;17.80;77.10;;;;;;6106922;23;20337;-90
2023/05/10 05:32:24;;;;;;;2.72;1.77;;;17.80;76.70;;;;;;6131116;23;20421;-87
2023/05/10 05:34:50;;;;;;;2.55;1.83;;;17.80;77.40;;;;;;6128186;23;20436;-83
2023/05/10 05:37:18;;;;;;;2.28;1.73;;;17.80;78.00;;;;;;6127606;23;20020;-84
2023/05/10 05:39:45;;;;;;;2.08;1.50;;;17.80;77.80;;;;;;6127678;23;20061;-83
2023/05/10 05:42:11;;;;;;;2.03;1.83;;;17.90;78.00;;;;;;6127035;23;20026;-86
2023/05/10 05:44:38;;;;;;;2.78;1.58;;;17.90;78.40;;;;;;6102229;23;20029;-83
2023/05/10 05:47:04;;;;;;;3.63;1.95;;;17.90;78.80;;;;;;6102935;23;20091;-84
2023/05/10 05:49:31;;;;;;;3.95;1.90;;;17.90;78.70;;;;;;6127303;23;20005;-87
2023/05/10 05:52:00;;;;;;;3.33;1.77;;;17.90;78.30;;;;;;6127471;23;20452;-86
2023/05/10 05:54:26;;;;;;;2.60;1.65;;;17.80;78.30;;;;;;6127762;23;20009;-84
2023/05/10 05:56:56;;;;;;;2.67;1.83;;;17.80;79.00;;;;;;6127701;23;20006;-86
2023/05/10 05:59:22;;;;;;;3.10;1.50;;;17.80;79.10;;;;;;6127709;23;20077;-85
2023/05/10 06:01:49;;;;;;;2.42;1.88;;;17.90;79.50;;;;;;6127209;23;20030;-85
2023/05/10 06:04:14;;;;;;;4.85;1.67;;;17.90;78.80;;;;;;6099935;23;20082;-84
2023/05/10 06:06:40;;;;;;;2.25;1.55;;;17.90;78.50;;;;;;6126770;23;20321;-84
2023/05/10 06:09:06;;;;;;;3.17;1.67;;;17.90;77.80;;;;;;6125269;23;20325;-84
2023/05/10 06:11:32;;;;;;;5.28;2.40;;;17.80;77.30;;;;;;6125886;23;19998;-84
2023/05/10 06:13:59;;;;;;;2.28;1.75;;;17.80;77.70;;;;;;6126291;23;20325;-85
2023/05/10 06:16:24;;;;;;;1.98;1.60;;;17.80;78.50;;;;;;6126937;23;20002;-85
2023/05/10 06:18:50;;;;;;;2.35;1.77;;;17.80;78.20;;;;;;6127376;23;20052;-85
2023/05/10 06:21:16;;;;;;;4.40;2.58;;;17.80;78.50;;;;;;6127811;23;20028;-85
2023/05/10 06:23:42;;;;;;;3.58;2.42;;;17.80;79.30;;;;;;6127730;23;20480;-85
2023/05/10 06:26:08;;;;;;;5.13;1.98;;;17.80;79.60;;;;;;6128002;23;20009;-85
2023/05/10 06:28:33;;;;;;;2.92;2.20;;;17.80;79.70;;;;;;6126678;23;20429;-86
2023/05/10 06:31:00;;;;;;;2.10;1.90;;;17.80;79.70;;;;;;6127044;23;19998;-85
2023/05/10 06:33:25;;;;;;;3.03;1.80;;;17.80;81.10;;;;;;6126216;23;20017;-85
2023/05/10 06:35:51;;;;;;;2.72;2.13;;;17.80;81.10;;;;;;6126251;23;20060;-85
2023/05/10 06:38:17;;;;;;;3.80;2.55;;;17.80;81.30;;;;;;6126864;23;20014;-85
2023/05/10 06:40:43;;;;;;;2.67;1.95;;;17.80;80.50;;;;;;6127203;23;20006;-85
2023/05/10 06:43:09;;;;;;;3.22;1.90;;;17.80;80.10;;;;;;6126480;23;20448;-85
2023/05/10 06:45:35;;;;;;;2.50;1.95;;;17.70;79.70;;;;;;6100271;23;20013;-85
2023/05/10 06:48:01;;;;;;;3.00;2.30;;;17.70;80.20;;;;;;6126021;23;20002;-85
2023/05/10 06:50:26;;;;;;;3.42;1.90;;;17.70;80.20;;;;;;6126208;23;20052;-85
2023/05/10 06:52:52;;;;;;;3.80;2.50;;;17.70;81.00;;;;;;6125646;23;20005;-85
2023/05/10 06:55:18;;;;;;;3.80;2.10;;;17.70;81.40;;;;;;6126009;23;20341;-84
2023/05/10 06:57:44;;;;;;;4.15;2.60;;;17.70;81.10;;;;;;6125219;23;20029;-84
2023/05/10 07:00:10;;;;;;;3.22;2.35;;;17.80;81.60;;;;;;6125380;23;20002;-85
2023/05/10 07:02:36;;;;;;;3.30;2.25;;;17.80;82.70;;;;;;6126412;23;20421;-86
2023/05/10 07:05:02;;;;;;;2.97;2.05;;;17.80;82.70;;;;;;6124794;23;20053;-84
2023/05/10 07:07:28;;;;;;;5.03;2.25;;;17.80;83.10;;;;;;6126529;23;20002;-84
2023/05/10 07:09:54;;;;;;;3.28;2.15;;;17.80;82.90;;;;;;6125773;23;20002;-84
2023/05/10 07:12:20;;;;;;;3.53;2.58;;;17.80;82.70;;;;;;6126078;23;20332;-85
2023/05/10 07:14:46;;;;;;;3.60;1.70;;;17.80;83.00;;;;;;6126679;23;20077;-86
2023/05/10 07:17:12;;;;;;;2.97;1.92;;;17.80;82.50;;;;;;6127073;23;20002;-85
2023/05/10 07:19:37;;;;;;;2.70;2.00;;;17.70;82.60;;;;;;6125288;23;20421;-83
2023/05/10 07:22:03;;;;;;;3.00;2.03;;;17.60;82.70;;;;;;6100170;23;20009;-84
2023/05/10 07:24:29;;;;;;;3.22;2.10;;;17.60;82.70;;;;;;6126701;23;20029;-84
2023/05/10 07:26:55;;;;;;;2.47;1.73;;;17.60;82.70;;;;;;6127201;23;20402;-84
2023/05/10 07:29:21;;;;;;;2.33;2.00;;;17.60;83.70;;;;;;6100686;23;20097;-83
2023/05/10 07:31:46;;;;;;;2.50;1.92;;;17.60;84.20;;;;;;6126412;23;20006;-83
2023/05/10 07:34:12;;;;;;;4.68;2.38;;;17.60;84.70;;;;;;6126347;23;20421;-83
2023/05/10 07:36:38;;;;;;;2.33;2.00;;;17.60;84.20;;;;;;6100013;23;20018;-84
2023/05/10 07:39:04;;;;;;;3.17;2.15;;;17.60;83.90;;;;;;6100263;23;20344;-84
2023/05/10 07:41:30;;;;;;;2.70;2.20;;;17.60;83.90;;;;;;6125622;23;20336;-83
2023/05/10 07:43:56;;;;;;;2.15;1.80;;;17.60;84.50;;;;;;6125658;23;20033;-86
2023/05/10 07:46:21;;;;;;;3.05;2.20;;;17.50;84.40;;;;;;6127060;23;20034;-86
2023/05/10 07:48:47;;;;;;;3.03;2.45;;;17.50;84.50;;;;;;6126632;23;19994;-86
2023/05/10 07:51:13;;;;;;;4.05;2.20;;;17.50;85.20;;;;;;6126193;23;20002;-87
2023/05/10 07:53:39;;;;;;;1.95;1.80;;;17.50;85.90;;;;;;6126711;23;20006;-87
2023/05/10 07:56:26;;;;;;;2.35;2.10;;;17.50;85.50;;;;;;6100489;23;20447;-86
2023/05/10 07:58:52;;;;;;;3.85;2.50;;;17.50;85.70;;;;;;6101078;23;20006;-86
2023/05/10 08:01:19;;;;;;;3.38;2.20;;;17.50;85.60;;;;;;6126539;23;20013;-86
2023/05/10 08:03:45;;;;;;;3.35;2.33;;;17.40;86.00;;;;;;6100088;23;20064;-86
2023/05/10 08:06:11;;;;;;;2.75;2.20;;;17.40;86.10;;;;;;6100028;23;20006;-86
2023/05/10 08:08:36;;;;;;;3.88;2.33;;;17.40;86.50;;;;;;6100448;23;20006;-86
2023/05/10 08:11:03;;;;;;;2.53;2.15;;;17.40;86.50;;;;;;6128054;23;19990;-86
2023/05/10 08:13:29;;;;;;;3.05;2.45;;;17.40;86.40;;;;;;6128047;23;20005;-87
2023/05/10 08:15:55;;;;;;;3.70;2.38;;;17.30;86.70;;;;;;6128385;23;20077;-86
2023/05/10 08:18:20;;;;;;;5.13;2.35;;;17.30;86.60;;;;;;6128124;23;20057;-87
2023/05/10 08:20:46;;;;;;;3.90;2.03;;;17.30;86.90;;;;;;6128557;23;20005;-85
2023/05/10 08:23:15;;;;;;;3.55;2.30;;;17.30;87.00;;;;;;6128453;23;20021;-86
2023/05/10 08:25:41;;;;;;;3.50;2.40;;;17.30;86.90;;;;;;6128323;23;20413;-87
2023/05/10 08:28:06;;;;;;;5.60;2.40;;;17.30;87.30;;;;;;6128701;23;20057;-87
2023/05/10 08:30:32;;;;;;;3.42;2.40;;;17.30;87.70;;;;;;6129192;23;20005;-86
2023/05/10 08:32:58;;;;;;;2.88;2.58;;;17.30;87.70;;;;;;6128626;23;20006;-87
2023/05/10 08:35:24;;;;;;;3.17;2.15;;;17.30;87.80;;;;;;6102071;23;20472;-85
2023/05/10 08:37:51;;;;;;;3.20;2.40;;;17.30;87.80;;;;;;6128302;23;20316;-88
2023/05/10 08:40:22;;;;;;;4.18;2.78;;;17.30;88.30;;;;;;6128876;23;20013;-87
2023/05/10 08:42:58;;;;;;;3.35;2.30;;;17.20;88.30;;;;;;6127748;23;20038;-87
2023/05/10 08:45:26;;;;;;;2.88;2.55;;;17.30;88.40;;;;;;6125713;23;20029;-87
2023/05/10 08:47:52;;;;;;;3.20;2.40;;;17.20;88.70;;;;;;6127982;23;20009;-88
2023/05/10 08:50:21;;;;;;;4.13;2.63;;;17.30;88.80;;;;;;6128028;23;20013;-88
2023/05/10 08:52:50;;;;;;;3.92;2.50;;;17.30;88.90;;;;;;6127918;23;20506;-88
2023/05/10 08:55:16;;;;;;;4.80;2.88;;;17.30;89.00;;;;;;6127493;23;20008;-88
2023/05/10 08:57:42;;;;;;;3.67;2.78;;;17.30;89.40;;;;;;6128480;23;20006;-87
2023/05/10 09:00:09;;;;;;;3.22;2.53;;;17.30;89.80;;;;;;6128122;23;20028;-87
2023/05/10 09:02:36;;;;;;;3.55;2.50;;;17.30;89.50;;;;;;6101162;23;20010;-88
2023/05/10 09:05:04;;;;;;;3.72;2.75;;;17.30;89.60;;;;;;6127645;23;19998;-88
2023/05/10 09:07:30;;;;;;;3.85;2.80;;;17.30;89.60;;;;;;6100938;23;20377;-88
2023/05/10 09:09:57;;;;;;;2.78;2.28;;;17.30;89.70;;;;;;6127520;23;19998;-88
2023/05/10 09:12:23;;;;;;;2.92;2.20;;;17.30;89.50;;;;;;6127985;23;20088;-88
2023/05/10 09:14:51;;;;;;;3.70;2.53;;;17.20;89.70;;;;;;6129191;23;20061;-88
2023/05/10 09:17:17;;;;;;;2.50;2.30;;;17.20;90.00;;;;;;6144501;23;20025;-88
2023/05/10 09:19:44;;;;;;;2.83;2.20;;;17.20;90.00;;;;;;6144259;23;19997;-88
2023/05/10 09:22:10;;;;;;;3.28;2.75;;;17.20;90.10;;;;;;6150607;23;19998;-86
2023/05/10 09:24:36;;;;;;;2.95;2.40;;;17.20;90.30;;;;;;6143970;23;20030;-88
2023/05/10 09:27:02;;;;;;;4.25;2.75;;;17.20;90.40;;;;;;6146490;23;20053;-87
2023/05/10 09:29:40;;;;;;;3.20;2.88;;;17.20;90.20;;;;;;6143561;23;20049;-87
2023/05/10 09:32:05;;;;;;;2.95;2.53;;;17.20;90.30;;;;;;6127443;23;20005;-85
2023/05/10 09:34:34;;;;;;;3.33;2.42;;;17.20;90.20;;;;;;6127149;23;20010;-86
2023/05/10 09:37:02;;;;;;;3.05;2.72;;;17.30;90.30;;;;;;6127005;23;20326;-86
2023/05/10 09:39:32;;;;;;;3.20;2.90;;;17.30;90.30;;;;;;6125104;23;20012;-86
2023/05/10 09:42:00;;;;;;;;;;;17.30;90.30;;;;;;6127123;23;20006;-86
2023/05/10 09:44:26;;;;;;;5.40;3.22;;;17.30;90.40;;;;;;6126445;23;19905;-86
2023/05/10 09:46:52;;;;;;;2.60;2.40;;;17.30;90.70;;;;;;6133850;23;20471;-84
2023/05/10 09:49:19;;;;;;;3.88;2.60;;;17.30;90.60;;;;;;6127261;23;20006;-84
2023/05/10 09:51:45;;;;;;;3.88;2.97;;;17.30;90.60;;;;;;6125636;23;20006;-84
2023/05/10 09:54:12;;;;;;;3.25;2.95;;;17.30;90.80;;;;;;6126129;23;20006;-84
2023/05/10 09:56:40;;;;;;;5.13;2.80;;;17.30;91.00;;;;;;6126945;23;20009;-84
2023/05/10 09:59:07;;;;;;;4.68;3.15;;;17.40;91.00;;;;;;6101157;23;20021;-84
2023/05/10 10:01:35;;;;;;;4.85;3.22;;;17.40;90.90;;;;;;6097341;23;20518;-85
2023/05/10 10:04:10;;;;;;;5.07;3.60;;;17.40;91.00;;;;;;6125736;23;20026;-84
2023/05/10 10:06:40;;;;;;;3.47;2.83;;;17.40;91.20;;;;;;6125772;23;20464;-84
2023/05/10 10:09:09;;;;;;;4.90;3.20;;;17.40;91.30;;;;;;6126108;23;20456;-85
2023/05/10 10:11:38;;;;;;;3.17;2.87;;;17.40;91.10;;;;;;6125880;23;20065;-85
2023/05/10 10:14:05;;;;;;;5.83;3.40;;;17.50;91.20;;;;;;6125649;23;20077;-84
2023/05/10 10:16:32;;;;;;;4.10;3.25;;;17.50;91.30;;;;;;6128552;23;20034;-85
2023/05/10 10:18:58;;;;;;;4.00;3.08;;;17.50;91.30;;;;;;6128228;23;20010;-84
2023/05/10 10:21:24;;;;;;;3.38;3.03;;;17.50;91.40;;;;;;6135961;23;20001;-85
2023/05/10 10:23:50;;;;;;;5.28;4.30;;;17.50;91.30;;;;;;6145814;23;20016;-84
2023/05/10 10:26:18;;;;;;;3.83;3.10;;;17.50;91.40;;;;;;6144587;23;20002;-84
2023/05/10 10:28:47;;;;;;;4.35;3.63;;;17.50;91.30;;;;;;6132212;23;20055;-84
2023/05/10 10:31:41;;;;;;;6.25;2.83;;;17.40;91.40;;;;;;6126789;23;20524;-85
2023/05/10 10:34:10;;;;;;;5.28;3.00;;;17.40;91.40;;;;;;6073259;23;20006;-84
2023/05/10 10:36:46;;;;;;;4.97;3.35;;;17.40;91.30;;;;;;6125478;23;20006;-85
2023/05/10 10:39:13;;;;;;;5.38;2.90;;;17.50;91.30;;;;;;6125485;23;20005;-84
2023/05/10 10:41:48;;;;;;;6.22;3.50;;;17.50;91.30;;;;;;6125212;23;19998;-84
2023/05/10 10:44:25;;;;;;;3.90;3.20;;;17.40;91.40;;;;;;6125267;23;20002;-84
2023/05/10 10:47:11;;;;;;;3.97;3.53;;;17.40;91.40;;;;;;6125973;23;20029;-85
2023/05/10 10:49:39;;;;;;;3.67;3.20;;;17.30;91.40;;;;;;6125216;23;19998;-85
2023/05/10 10:52:15;;;;;;;5.95;3.70;;;17.30;91.60;;;;;;6099586;23;20006;-85
2023/05/10 10:54:41;;;;;;;3.97;3.42;;;17.30;91.70;;;;;;6125563;23;20008;-84
2023/05/10 10:57:13;;;;;;;5.78;3.60;;;17.20;91.70;;;;;;6099746;23;20006;-85
2023/05/10 10:59:46;;;;;;;4.57;3.47;;;17.20;91.70;;;;;;6125411;23;20006;-85
2023/05/10 11:02:35;;;;;;;3.45;2.85;;;17.20;91.80;;;;;;6122752;23;20882;-85
2023/05/10 11:05:24;;;;;;;4.05;3.45;;;17.20;91.80;;;;;;6125650;23;20006;-85
2023/05/10 11:07:58;;;;;;;5.57;3.67;;;17.20;91.90;;;;;;6125449;23;20009;-84
2023/05/10 11:10:24;;;;;;;7.05;3.72;;;17.20;91.90;;;;;;6125159;23;20001;-85
2023/05/10 11:13:03;;;;;;;3.85;3.42;;;17.30;92.10;;;;;;6125331;23;20121;-85
2023/05/10 11:15:33;;;;;;;4.55;3.50;;;17.30;92.10;;;;;;6125065;23;20002;-85
2023/05/10 11:17:59;;;;;;;6.82;3.58;;;17.30;92.00;;;;;;6125752;23;20006;-84
2023/05/10 11:20:33;;;;;;;4.35;3.92;;;17.30;92.20;;;;;;6125705;23;20053;-84
2023/05/10 11:23:12;;;;;;;4.63;3.90;;;17.30;92.30;;;;;;6125259;23;20336;-85
2023/05/10 11:25:45;;;;;;;5.97;3.30;;;17.30;92.20;;;;;;6124956;23;20029;-85
2023/05/10 11:28:12;;;;;;;4.15;3.50;;;17.30;92.10;;;;;;6125164;23;20005;-84
2023/05/10 11:30:42;;;;;;;5.18;3.63;;;17.30;92.10;;;;;;6125295;23;20444;-84
2023/05/10 11:33:09;;;;;;;4.35;3.45;;;17.30;92.10;;;;;;6125584;23;20006;-84
2023/05/10 11:35:39;;;;;;;6.13;4.40;;;17.30;92.20;;;;;;6125854;23;20006;-85
2023/05/10 11:38:09;;;;;;;7.40;3.72;;;17.30;92.30;;;;;;6124836;23;20029;-84
2023/05/10 11:40:35;;;;;;;3.90;3.13;;;17.20;92.30;;;;;;6125507;23;20341;-85
2023/05/10 11:43:02;;;;;;;4.45;3.60;;;17.20;92.40;;;;;;6125301;23;20064;-85
2023/05/10 11:45:31;;;;;;;5.72;3.30;;;17.20;92.50;;;;;;6125617;23;20010;-85
2023/05/10 11:47:58;;;;;;;6.10;3.90;;;17.20;92.50;;;;;;6098779;23;20002;-84
2023/05/10 11:50:24;;;;;;;4.13;3.25;;;17.20;92.70;;;;;;6124851;23;20009;-84
2023/05/10 11:52:54;;;;;;;3.10;2.80;;;17.20;92.60;;;;;;6125339;23;20006;-84
2023/05/10 11:55:20;;;;;;;4.40;3.70;;;17.30;92.60;;;;;;6125300;23;20610;-84
2023/05/10 11:57:46;;;;;;;5.15;3.50;;;17.30;92.50;;;;;;6126331;23;20076;-82
2023/05/10 12:00:15;;;;;;;8.30;3.72;;;17.30;92.60;;;;;;6126273;23;20010;-83
2023/05/10 12:02:41;;;;;;;4.82;3.20;;;17.30;92.70;;;;;;6127219;23;20013;-85
2023/05/10 12:05:07;;;;;;;6.90;3.78;;;17.30;92.70;;;;;;6126619;23;20424;-85
2023/05/10 12:07:33;;;;;;;4.10;3.50;;;17.30;92.80;;;;;;6100965;23;20012;-84
2023/05/10 12:10:24;;;;;;;3.83;3.03;;;17.30;92.80;;;;;;6127147;23;20029;-84
2023/05/10 12:12:52;;;;;;;5.00;3.60;;;17.30;92.80;;;;;;6127065;23;20417;-84
2023/05/10 12:15:23;;;;;;;4.95;3.95;;;17.30;92.80;;;;;;6100920;23;20436;-84
2023/05/10 12:17:50;;;;;;;3.67;3.10;;;17.40;92.80;;;;;;6126945;23;20006;-84
2023/05/10 12:20:19;;;;;;;4.20;3.47;;;17.40;92.80;;;;;;6127423;23;20073;-84
2023/05/10 12:22:53;;;;;;;3.92;3.17;;;17.30;92.70;;;;;;6126199;23;20084;-80
2023/05/10 12:25:21;;;;;;;4.88;3.63;;;17.30;92.80;;;;;;6125658;23;20002;-81
2023/05/10 12:27:55;;;;;;;6.85;3.70;;;17.30;92.80;;;;;;6125843;23;19998;-81
2023/05/10 12:30:26;;;;;;;4.57;3.75;;;17.20;92.90;;;;;;6126009;23;20005;-81
2023/05/10 12:32:53;;;;;;;3.88;3.22;;;17.20;92.90;;;;;;6125574;23;20021;-82
2023/05/10 12:35:23;;;;;;;4.65;3.75;;;17.20;93.00;;;;;;6124236;23;20013;-85
2023/05/10 12:37:50;;;;;;;3.40;3.10;;;17.20;93.10;;;;;;6125741;23;20074;-86
2023/05/10 12:40:16;;;;;;;3.88;3.22;;;17.20;93.20;;;;;;6127072;23;20009;-89
2023/05/10 12:42:44;;;;;;;5.32;3.40;;;17.20;93.10;;;;;;6100918;23;20010;-88
2023/05/10 12:45:10;;;;;;;3.83;3.10;;;17.20;93.20;;;;;;6126664;23;20002;-88
2023/05/10 12:47:36;;;;;;;4.50;3.78;;;17.10;93.10;;;;;;6101329;23;20133;-86
2023/05/10 12:50:03;;;;;;;5.97;3.67;;;17.20;93.00;;;;;;6127477;23;19998;-86
2023/05/10 12:52:29;;;;;;;8.02;3.83;;;17.20;93.20;;;;;;6127025;23;20006;-88